sensor_id;sensor_type;location;lat;lon;timestamp;pressure;altitude;pressure_sealevel;temperature;humidity
31082;BME280;17737;52.586;13.284;2022-12-29T00:01:08;100180.47;;;7.44;83.08
31082;BME280;17737;52.586;13.284;2022-12-29T00:03:37;100179.59;;;7.43;83.52
31082;BME280;17737;52.586;13.284;2022-12-29T00:06:05;100173.75;;;7.48;83.21
31082;BME280;17737;52.586;13.284;2022-12-29T00:08:33;100161.69;;;7.44;83.36
31082;BME280;17737;52.586;13.284;2022-12-29T00:11:10;100168.22;;;7.49;83.02
31082;BME280;17737;52.586;13.284;2022-12-29T00:13:39;100172.44;;;7.52;83.03
31082;BME280;17737;52.586;13.284;2022-12-29T00:16:25;100172.63;;;7.58;82.07
31082;BME280;17737;52.586;13.284;2022-12-29T00:18:54;100167.06;;;7.52;82.64
31082;BME280;17737;52.586;13.284;2022-12-29T00:21:23;100173.31;;;7.60;82.16
31082;BME280;17737;52.586;13.284;2022-12-29T00:24:13;100160.91;;;7.59;82.20
31082;BME280;17737;52.586;13.284;2022-12-29T00:27:10;100165.44;;;7.67;81.35
31082;BME280;17737;52.586;13.284;2022-12-29T00:29:58;100158.06;;;7.61;82.27
31082;BME280;17737;52.586;13.284;2022-12-29T00:32:44;100150.19;;;7.59;82.75
31082;BME280;17737;52.586;13.284;2022-12-29T00:35:31;100146.50;;;7.68;82.02
31082;BME280;17737;52.586;13.284;2022-12-29T00:38:07;100136.13;;;7.65;82.48
31082;BME280;17737;52.586;13.284;2022-12-29T00:40:54;100143.81;;;7.60;82.73
31082;BME280;17737;52.586;13.284;2022-12-29T00:43:41;100137.28;;;7.63;82.22
31082;BME280;17737;52.586;13.284;2022-12-29T00:46:26;100139.59;;;7.58;82.62
31082;BME280;17737;52.586;13.284;2022-12-29T00:48:56;100142.44;;;7.56;83.90
31082;BME280;17737;52.586;13.284;2022-12-29T00:51:43;100129.09;;;7.64;82.76
31082;BME280;17737;52.586;13.284;2022-12-29T00:54:12;100130.56;;;7.59;83.29
31082;BME280;17737;52.586;13.284;2022-12-29T00:56:40;100131.88;;;7.55;83.28
31082;BME280;17737;52.586;13.284;2022-12-29T00:59:10;100136.91;;;7.50;84.03
31082;BME280;17737;52.586;13.284;2022-12-29T01:01:39;100131.88;;;7.47;84.67
31082;BME280;17737;52.586;13.284;2022-12-29T01:04:08;100124.38;;;7.58;83.30
31082;BME280;17737;52.586;13.284;2022-12-29T01:06:38;100120.03;;;7.57;83.78
31082;BME280;17737;52.586;13.284;2022-12-29T01:09:09;100128.75;;;7.67;82.44
31082;BME280;17737;52.586;13.284;2022-12-29T01:11:55;100120.03;;;7.65;82.65
31082;BME280;17737;52.586;13.284;2022-12-29T01:14:25;100117.34;;;7.65;82.95
31082;BME280;17737;52.586;13.284;2022-12-29T01:16:54;100114.19;;;7.78;81.61
31082;BME280;17737;52.586;13.284;2022-12-29T01:19:23;100121.91;;;7.73;82.31
31082;BME280;17737;52.586;13.284;2022-12-29T01:21:52;100123.56;;;7.74;82.18
31082;BME280;17737;52.586;13.284;2022-12-29T01:24:20;100121.56;;;7.84;81.99
31082;BME280;17737;52.586;13.284;2022-12-29T01:26:49;100124.06;;;7.85;81.42
31082;BME280;17737;52.586;13.284;2022-12-29T01:29:17;100125.25;;;7.83;81.94
31082;BME280;17737;52.586;13.284;2022-12-29T01:31:46;100120.38;;;7.78;82.38
31082;BME280;17737;52.586;13.284;2022-12-29T01:34:16;100124.75;;;7.79;82.38
31082;BME280;17737;52.586;13.284;2022-12-29T01:36:45;100122.06;;;7.79;82.09
31082;BME280;17737;52.586;13.284;2022-12-29T01:39:13;100120.19;;;7.80;81.96
31082;BME280;17737;52.586;13.284;2022-12-29T01:41:41;100121.56;;;7.76;82.27
31082;BME280;17737;52.586;13.284;2022-12-29T01:44:48;100123.06;;;7.70;82.86
31082;BME280;17737;52.586;13.284;2022-12-29T01:47:31;100120.88;;;7.74;82.56
31082;BME280;17737;52.586;13.284;2022-12-29T01:50:07;100123.72;;;7.64;83.50
31082;BME280;17737;52.586;13.284;2022-12-29T01:52:41;100119.50;;;7.62;83.69
31082;BME280;17737;52.586;13.284;2022-12-29T01:55:15;100115.63;;;7.56;84.37
31082;BME280;17737;52.586;13.284;2022-12-29T01:57:46;100111.47;;;7.62;84.16
31082;BME280;17737;52.586;13.284;2022-12-29T02:00:20;100096.88;;;7.56;84.58
31082;BME280;17737;52.586;13.284;2022-12-29T02:02:51;100098.41;;;7.59;84.61
31082;BME280;17737;52.586;13.284;2022-12-29T02:05:26;100096.38;;;7.53;84.90
31082;BME280;17737;52.586;13.284;2022-12-29T02:07:59;100092.19;;;7.50;85.25
31082;BME280;17737;52.586;13.284;2022-12-29T02:10:31;100090.88;;;7.54;84.95
31082;BME280;17737;52.586;13.284;2022-12-29T02:13:02;100088.03;;;7.56;84.95
31082;BME280;17737;52.586;13.284;2022-12-29T02:15:37;100083.16;;;7.59;84.50
31082;BME280;17737;52.586;13.284;2022-12-29T02:18:25;100071.44;;;7.60;84.50
31082;BME280;17737;52.586;13.284;2022-12-29T02:21:41;100069.94;;;7.66;83.96
31082;BME280;17737;52.586;13.284;2022-12-29T02:24:49;100073.13;;;7.69;83.63
31082;BME280;17737;52.586;13.284;2022-12-29T02:27:50;100076.47;;;7.71;83.33
31082;BME280;17737;52.586;13.284;2022-12-29T02:30:42;100064.91;;;7.71;83.28
31082;BME280;17737;52.586;13.284;2022-12-29T02:33:22;100059.03;;;7.75;83.17
31082;BME280;17737;52.586;13.284;2022-12-29T02:36:07;100059.03;;;7.83;82.09
31082;BME280;17737;52.586;13.284;2022-12-29T02:38:51;100057.19;;;7.76;82.64
31082;BME280;17737;52.586;13.284;2022-12-29T02:41:31;100050.50;;;7.88;81.52
31082;BME280;17737;52.586;13.284;2022-12-29T02:44:05;100051.00;;;7.91;80.96
31082;BME280;17737;52.586;13.284;2022-12-29T02:46:47;100045.28;;;8.02;80.34
31082;BME280;17737;52.586;13.284;2022-12-29T02:49:26;100054.00;;;8.04;79.71
31082;BME280;17737;52.586;13.284;2022-12-29T02:52:03;100059.38;;;8.04;79.56
31082;BME280;17737;52.586;13.284;2022-12-29T02:54:35;100050.47;;;8.04;80.18
31082;BME280;17737;52.586;13.284;2022-12-29T02:57:11;100051.31;;;8.12;79.21
31082;BME280;17737;52.586;13.284;2022-12-29T02:59:44;100042.25;;;8.21;78.00
31082;BME280;17737;52.586;13.284;2022-12-29T03:02:30;100046.63;;;8.30;77.21
31082;BME280;17737;52.586;13.284;2022-12-29T03:05:34;100043.44;;;8.27;77.21
31082;BME280;17737;52.586;13.284;2022-12-29T03:08:22;100044.28;;;8.35;77.22
31082;BME280;17737;52.586;13.284;2022-12-29T03:10:59;100038.91;;;8.27;77.79
31082;BME280;17737;52.586;13.284;2022-12-29T03:13:36;100026.16;;;8.37;76.75
31082;BME280;17737;52.586;13.284;2022-12-29T03:16:35;100022.06;;;8.49;76.24
31082;BME280;17737;52.586;13.284;2022-12-29T03:19:15;100030.78;;;8.52;76.02
31082;BME280;17737;52.586;13.284;2022-12-29T03:21:51;100026.06;;;8.62;75.06
31082;BME280;17737;52.586;13.284;2022-12-29T03:24:44;100023.22;;;8.63;75.12
31082;BME280;17737;52.586;13.284;2022-12-29T03:27:19;100024.53;;;8.67;75.12
31082;BME280;17737;52.586;13.284;2022-12-29T03:29:54;100021.19;;;8.65;75.29
31082;BME280;17737;52.586;13.284;2022-12-29T03:32:32;100014.47;;;8.69;74.92
31082;BME280;17737;52.586;13.284;2022-12-29T03:35:06;100020.69;;;8.70;75.36
31082;BME280;17737;52.586;13.284;2022-12-29T03:37:40;100016.59;;;8.82;74.45
31082;BME280;17737;52.586;13.284;2022-12-29T03:40:10;100018.09;;;8.84;74.50
31082;BME280;17737;52.586;13.284;2022-12-29T03:42:40;100007.88;;;8.80;74.46
31082;BME280;17737;52.586;13.284;2022-12-29T03:45:10;100014.88;;;8.89;74.33
31082;BME280;17737;52.586;13.284;2022-12-29T03:47:38;100009.16;;;8.92;74.06
31082;BME280;17737;52.586;13.284;2022-12-29T03:50:08;100017.22;;;8.92;74.41
31082;BME280;17737;52.586;13.284;2022-12-29T03:52:39;100016.69;;;8.96;74.21
31082;BME280;17737;52.586;13.284;2022-12-29T03:55:08;100021.84;;;9.06;73.55
31082;BME280;17737;52.586;13.284;2022-12-29T03:57:36;100024.94;;;8.95;74.17
31082;BME280;17737;52.586;13.284;2022-12-29T04:00:06;100019.81;;;9.08;73.44
31082;BME280;17737;52.586;13.284;2022-12-29T04:02:35;100007.59;;;8.97;74.57
31082;BME280;17737;52.586;13.284;2022-12-29T04:05:04;100010.75;;;9.09;73.40
31082;BME280;17737;52.586;13.284;2022-12-29T04:07:34;100006.72;;;9.05;74.29
31082;BME280;17737;52.586;13.284;2022-12-29T04:10:03;100008.72;;;9.11;73.51
31082;BME280;17737;52.586;13.284;2022-12-29T04:12:31;100018.63;;;9.10;73.72
31082;BME280;17737;52.586;13.284;2022-12-29T04:14:59;100009.72;;;9.10;73.42
31082;BME280;17737;52.586;13.284;2022-12-29T04:17:27;99998.28;;;9.16;73.44
31082;BME280;17737;52.586;13.284;2022-12-29T04:19:55;99998.63;;;9.13;73.66
31082;BME280;17737;52.586;13.284;2022-12-29T04:22:45;100003.31;;;9.19;73.66
31082;BME280;17737;52.586;13.284;2022-12-29T04:25:13;100015.72;;;9.20;73.59
31082;BME280;17737;52.586;13.284;2022-12-29T04:27:41;100010.16;;;9.21;73.78
31082;BME280;17737;52.586;13.284;2022-12-29T04:30:10;99994.22;;;9.20;73.29
31082;BME280;17737;52.586;13.284;2022-12-29T04:32:39;99996.53;;;9.23;73.62
31082;BME280;17737;52.586;13.284;2022-12-29T04:35:08;99995.19;;;9.27;73.06
31082;BME280;17737;52.586;13.284;2022-12-29T04:37:36;99987.84;;;9.21;74.01
31082;BME280;17737;52.586;13.284;2022-12-29T04:40:07;99997.81;;;9.35;73.17
31082;BME280;17737;52.586;13.284;2022-12-29T04:42:36;99986.53;;;9.39;72.56
31082;BME280;17737;52.586;13.284;2022-12-29T04:45:05;99986.63;;;9.23;73.68
31082;BME280;17737;52.586;13.284;2022-12-29T04:47:34;99987.84;;;9.21;74.01
31082;BME280;17737;52.586;13.284;2022-12-29T04:50:33;99986.81;;;9.22;74.23
31082;BME280;17737;52.586;13.284;2022-12-29T04:53:04;99981.19;;;9.31;73.33
31082;BME280;17737;52.586;13.284;2022-12-29T04:55:34;99994.13;;;9.36;73.15
31082;BME280;17737;52.586;13.284;2022-12-29T04:58:04;99987.41;;;9.32;73.18
31082;BME280;17737;52.586;13.284;2022-12-29T05:00:33;99975.78;;;9.39;72.97
31082;BME280;17737;52.586;13.284;2022-12-29T05:03:01;99983.66;;;9.41;73.02
31082;BME280;17737;52.586;13.284;2022-12-29T05:05:29;99981.97;;;9.40;73.60
31082;BME280;17737;52.586;13.284;2022-12-29T05:07:57;99973.41;;;9.36;73.21
31082;BME280;17737;52.586;13.284;2022-12-29T05:10:26;99976.06;;;9.44;73.00
31082;BME280;17737;52.586;13.284;2022-12-29T05:12:55;99979.94;;;9.42;73.18
31082;BME280;17737;52.586;13.284;2022-12-29T05:15:23;99978.00;;;9.36;73.39
31082;BME280;17737;52.586;13.284;2022-12-29T05:17:51;99969.16;;;9.50;73.08
31082;BME280;17737;52.586;13.284;2022-12-29T05:20:19;99966.75;;;9.55;72.71
31082;BME280;17737;52.586;13.284;2022-12-29T05:22:48;99966.38;;;9.58;73.42
31082;BME280;17737;52.586;13.284;2022-12-29T05:25:16;99961.81;;;9.58;72.89
31082;BME280;17737;52.586;13.284;2022-12-29T05:27:44;99949.88;;;9.61;73.78
31082;BME280;17737;52.586;13.284;2022-12-29T05:30:13;99953.41;;;9.61;73.48
31082;BME280;17737;52.586;13.284;2022-12-29T05:32:42;99949.88;;;9.61;73.65
31082;BME280;17737;52.586;13.284;2022-12-29T05:35:10;99949.13;;;9.67;73.58
31082;BME280;17737;52.586;13.284;2022-12-29T05:37:40;99948.13;;;9.68;73.33
31082;BME280;17737;52.586;13.284;2022-12-29T05:40:08;99946.59;;;9.74;73.15
31082;BME280;17737;52.586;13.284;2022-12-29T05:42:37;99952.06;;;9.80;73.05
31082;BME280;17737;52.586;13.284;2022-12-29T05:45:07;99943.81;;;9.82;73.01
31082;BME280;17737;52.586;13.284;2022-12-29T05:47:37;99941.13;;;9.82;72.85
31082;BME280;17737;52.586;13.284;2022-12-29T05:50:05;99941.59;;;9.85;72.72
31082;BME280;17737;52.586;13.284;2022-12-29T05:52:33;99938.81;;;9.93;72.54
31082;BME280;17737;52.586;13.284;2022-12-29T05:55:01;99952.63;;;9.90;72.66
31082;BME280;17737;52.586;13.284;2022-12-29T05:57:29;99943.53;;;9.91;73.13
31082;BME280;17737;52.586;13.284;2022-12-29T05:59:58;99937.63;;;9.96;72.87
31082;BME280;17737;52.586;13.284;2022-12-29T06:02:26;99939.75;;;9.86;73.76
31082;BME280;17737;52.586;13.284;2022-12-29T06:04:56;99933.34;;;9.87;73.38
31082;BME280;17737;52.586;13.284;2022-12-29T06:07:24;99925.34;;;9.93;72.94
31082;BME280;17737;52.586;13.284;2022-12-29T06:09:52;99928.72;;;9.95;73.35
31082;BME280;17737;52.586;13.284;2022-12-29T06:12:20;99926.28;;;10.00;72.86
31082;BME280;17737;52.586;13.284;2022-12-29T06:14:48;99931.41;;;9.95;72.66
31082;BME280;17737;52.586;13.284;2022-12-29T06:17:16;99927.03;;;9.94;73.05
31082;BME280;17737;52.586;13.284;2022-12-29T06:19:44;99927.38;;;9.91;73.72
31082;BME280;17737;52.586;13.284;2022-12-29T06:22:14;99934.84;;;10.04;72.43
31082;BME280;17737;52.586;13.284;2022-12-29T06:24:42;99929.25;;;10.05;72.44
31082;BME280;17737;52.586;13.284;2022-12-29T06:27:10;99937.53;;;10.04;73.05
31082;BME280;17737;52.586;13.284;2022-12-29T06:29:38;99933.81;;;10.05;72.83
31082;BME280;17737;52.586;13.284;2022-12-29T06:32:07;99949.25;;;10.11;73.00
31082;BME280;17737;52.586;13.284;2022-12-29T06:34:35;99951.47;;;10.07;72.67
31082;BME280;17737;52.586;13.284;2022-12-29T06:37:03;99936.00;;;10.09;72.23
31082;BME280;17737;52.586;13.284;2022-12-29T06:39:32;99938.59;;;10.17;72.30
31082;BME280;17737;52.586;13.284;2022-12-29T06:42:00;99939.91;;;10.21;72.30
31082;BME280;17737;52.586;13.284;2022-12-29T06:44:29;99931.09;;;10.13;72.14
31082;BME280;17737;52.586;13.284;2022-12-29T06:46:57;99931.16;;;10.19;72.05
31082;BME280;17737;52.586;13.284;2022-12-29T06:49:25;99933.59;;;10.14;72.50
31082;BME280;17737;52.586;13.284;2022-12-29T06:51:56;99940.81;;;10.14;72.78
31082;BME280;17737;52.586;13.284;2022-12-29T06:54:24;99943.69;;;10.12;72.07
31082;BME280;17737;52.586;13.284;2022-12-29T06:56:57;99954.47;;;10.12;72.31
31082;BME280;17737;52.586;13.284;2022-12-29T06:59:25;99952.44;;;10.14;72.73
31082;BME280;17737;52.586;13.284;2022-12-29T07:01:53;99958.00;;;10.13;72.25
31082;BME280;17737;52.586;13.284;2022-12-29T07:04:25;99950.72;;;10.13;72.18
31082;BME280;17737;52.586;13.284;2022-12-29T07:06:53;99952.44;;;10.14;72.33
31082;BME280;17737;52.586;13.284;2022-12-29T07:09:21;99951.66;;;10.06;73.15
31082;BME280;17737;52.586;13.284;2022-12-29T07:11:49;99953.88;;;10.02;73.35
31082;BME280;17737;52.586;13.284;2022-12-29T07:14:19;99959.53;;;10.07;73.47
31082;BME280;17737;52.586;13.284;2022-12-29T07:16:47;99960.31;;;10.16;72.61
31082;BME280;17737;52.586;13.284;2022-12-29T07:19:15;99960.03;;;10.11;72.93
31082;BME280;17737;52.586;13.284;2022-12-29T07:21:43;99969.75;;;10.12;73.26
31082;BME280;17737;52.586;13.284;2022-12-29T07:24:11;99964.19;;;10.13;73.55
31082;BME280;17737;52.586;13.284;2022-12-29T07:26:39;99954.66;;;10.11;73.08
31082;BME280;17737;52.586;13.284;2022-12-29T07:29:08;99951.47;;;10.07;74.00
31082;BME280;17737;52.586;13.284;2022-12-29T07:31:37;99945.22;;;10.07;73.72
31082;BME280;17737;52.586;13.284;2022-12-29T07:34:05;99943.38;;;10.07;73.82
31082;BME280;17737;52.586;13.284;2022-12-29T07:36:35;99943.38;;;10.07;73.33
31082;BME280;17737;52.586;13.284;2022-12-29T07:39:03;99941.84;;;10.13;73.74
31082;BME280;17737;52.586;13.284;2022-12-29T07:41:31;99933.41;;;10.16;73.61
31082;BME280;17737;52.586;13.284;2022-12-29T07:43:59;99934.13;;;10.10;73.97
31082;BME280;17737;52.586;13.284;2022-12-29T07:46:27;99934.97;;;10.10;74.06
31082;BME280;17737;52.586;13.284;2022-12-29T07:49:17;99944.06;;;10.09;74.71
31082;BME280;17737;52.586;13.284;2022-12-29T07:51:45;99944.88;;;10.10;74.31
31082;BME280;17737;52.586;13.284;2022-12-29T07:54:13;99944.72;;;10.11;74.48
31082;BME280;17737;52.586;13.284;2022-12-29T07:56:44;99941.28;;;10.17;73.71
31082;BME280;17737;52.586;13.284;2022-12-29T07:59:12;99948.88;;;10.14;73.80
31082;BME280;17737;52.586;13.284;2022-12-29T08:01:40;99947.31;;;10.19;73.62
31082;BME280;17737;52.586;13.284;2022-12-29T08:04:09;99952.63;;;10.13;74.17
31082;BME280;17737;52.586;13.284;2022-12-29T08:06:39;99939.63;;;10.16;74.04
31082;BME280;17737;52.586;13.284;2022-12-29T08:09:08;99943.13;;;10.17;74.10
31082;BME280;17737;52.586;13.284;2022-12-29T08:11:42;99941.66;;;10.14;73.64
31082;BME280;17737;52.586;13.284;2022-12-29T08:14:10;99953.72;;;10.18;73.98
31082;BME280;17737;52.586;13.284;2022-12-29T08:16:38;99944.44;;;10.21;73.83
31082;BME280;17737;52.586;13.284;2022-12-29T08:19:06;99944.44;;;10.21;73.14
31082;BME280;17737;52.586;13.284;2022-12-29T08:21:34;99951.47;;;10.22;73.84
31082;BME280;17737;52.586;13.284;2022-12-29T08:24:04;99949.63;;;10.22;73.73
31082;BME280;17737;52.586;13.284;2022-12-29T08:26:33;99951.22;;;10.17;73.64
31082;BME280;17737;52.586;13.284;2022-12-29T08:29:05;99950.19;;;10.18;73.99
31082;BME280;17737;52.586;13.284;2022-12-29T08:31:33;99949.53;;;10.16;73.83
31082;BME280;17737;52.586;13.284;2022-12-29T08:34:04;99941.00;;;10.12;74.10
31082;BME280;17737;52.586;13.284;2022-12-29T08:36:32;99929.19;;;10.13;74.27
31082;BME280;17737;52.586;13.284;2022-12-29T08:39:00;99930.78;;;10.08;74.75
31082;BME280;17737;52.586;13.284;2022-12-29T08:41:31;99932.81;;;10.06;74.40
31082;BME280;17737;52.586;13.284;2022-12-29T08:44:02;99936.09;;;10.16;73.68
31082;BME280;17737;52.586;13.284;2022-12-29T08:46:30;99938.78;;;10.16;73.49
31082;BME280;17737;52.586;13.284;2022-12-29T08:48:58;99943.88;;;10.25;73.39
31082;BME280;17737;52.586;13.284;2022-12-29T08:51:29;99935.44;;;10.28;73.98
31082;BME280;17737;52.586;13.284;2022-12-29T08:53:58;99942.28;;;10.45;72.84
31082;BME280;17737;52.586;13.284;2022-12-29T08:56:26;99943.22;;;10.52;72.99
31082;BME280;17737;52.586;13.284;2022-12-29T08:59:04;99938.75;;;10.59;72.22
31082;BME280;17737;52.586;13.284;2022-12-29T09:01:34;99929.19;;;10.57;72.73
31082;BME280;17737;52.586;13.284;2022-12-29T09:04:07;99932.44;;;10.52;73.25
31082;BME280;17737;52.586;13.284;2022-12-29T09:06:42;99928.53;;;10.55;72.82
31082;BME280;17737;52.586;13.284;2022-12-29T09:09:11;99921.47;;;10.54;72.65
31082;BME280;17737;52.586;13.284;2022-12-29T09:11:46;99923.81;;;10.57;72.42
31082;BME280;17737;52.586;13.284;2022-12-29T09:14:15;99912.84;;;10.58;72.85
31082;BME280;17737;52.586;13.284;2022-12-29T09:16:45;99915.16;;;10.61;72.40
31082;BME280;17737;52.586;13.284;2022-12-29T09:19:31;99918.25;;;10.79;72.25
31082;BME280;17737;52.586;13.284;2022-12-29T09:21:59;99920.69;;;11.10;70.45
31082;BME280;17737;52.586;13.284;2022-12-29T09:24:30;99914.66;;;11.29;69.91
31082;BME280;17737;52.586;13.284;2022-12-29T09:26:58;99915.53;;;11.15;70.11
31082;BME280;17737;52.586;13.284;2022-12-29T09:29:27;99924.72;;;11.21;70.23
31082;BME280;17737;52.586;13.284;2022-12-29T09:31:55;99915.00;;;11.20;70.28
31082;BME280;17737;52.586;13.284;2022-12-29T09:34:25;99920.25;;;11.28;70.16
31082;BME280;17737;52.586;13.284;2022-12-29T09:36:55;99904.56;;;11.38;69.90
31082;BME280;17737;52.586;13.284;2022-12-29T09:39:23;99900.38;;;11.56;69.03
31082;BME280;17737;52.586;13.284;2022-12-29T09:41:58;99901.56;;;11.47;69.36
31082;BME280;17737;52.586;13.284;2022-12-29T09:44:48;99884.13;;;11.50;69.44
31082;BME280;17737;52.586;13.284;2022-12-29T09:47:25;99894.94;;;11.50;69.85
31082;BME280;17737;52.586;13.284;2022-12-29T09:49:56;99899.72;;;11.54;69.76
31082;BME280;17737;52.586;13.284;2022-12-29T09:52:36;99912.22;;;11.55;69.32
31082;BME280;17737;52.586;13.284;2022-12-29T09:55:15;99918.06;;;11.59;69.23
31082;BME280;17737;52.586;13.284;2022-12-29T09:57:53;99916.91;;;11.68;69.25
31082;BME280;17737;52.586;13.284;2022-12-29T10:00:32;99920.47;;;11.75;68.50
31082;BME280;17737;52.586;13.284;2022-12-29T10:03:12;99922.56;;;11.73;68.74
31082;BME280;17737;52.586;13.284;2022-12-29T10:05:53;99918.50;;;11.62;69.27
31082;BME280;17737;52.586;13.284;2022-12-29T10:08:37;99920.34;;;11.62;69.19
31082;BME280;17737;52.586;13.284;2022-12-29T10:11:20;99915.75;;;11.56;69.62
31082;BME280;17737;52.586;13.284;2022-12-29T10:14:13;99921.97;;;11.56;69.16
31082;BME280;17737;52.586;13.284;2022-12-29T10:17:02;99916.91;;;11.47;69.70
31082;BME280;17737;52.586;13.284;2022-12-29T10:19:57;99914.47;;;11.52;69.71
31082;BME280;17737;52.586;13.284;2022-12-29T10:23:20;99909.19;;;11.65;69.33
31082;BME280;17737;52.586;13.284;2022-12-29T10:25:56;99908.06;;;11.80;68.74
31082;BME280;17737;52.586;13.284;2022-12-29T10:28:34;99911.66;;;11.87;68.64
31082;BME280;17737;52.586;13.284;2022-12-29T10:31:15;99903.16;;;11.90;68.50
31082;BME280;17737;52.586;13.284;2022-12-29T10:33:53;99905.66;;;11.92;68.48
31082;BME280;17737;52.586;13.284;2022-12-29T10:36:30;99902.75;;;11.93;68.38
31082;BME280;17737;52.586;13.284;2022-12-29T10:39:10;99900.75;;;12.02;67.96
31082;BME280;17737;52.586;13.284;2022-12-29T10:41:49;99903.94;;;12.12;67.76
31082;BME280;17737;52.586;13.284;2022-12-29T10:44:22;99898.19;;;12.22;67.40
31082;BME280;17737;52.586;13.284;2022-12-29T10:46:57;99902.16;;;12.26;67.04
31082;BME280;17737;52.586;13.284;2022-12-29T10:49:30;99899.69;;;12.31;66.88
31082;BME280;17737;52.586;13.284;2022-12-29T10:52:04;99903.44;;;12.36;66.66
31082;BME280;17737;52.586;13.284;2022-12-29T10:54:39;99902.41;;;12.37;66.69
31082;BME280;17737;52.586;13.284;2022-12-29T10:57:20;99909.06;;;12.41;66.63
31082;BME280;17737;52.586;13.284;2022-12-29T10:59:53;99892.25;;;12.39;66.49
31082;BME280;17737;52.586;13.284;2022-12-29T11:02:38;99890.13;;;12.35;66.71
31082;BME280;17737;52.586;13.284;2022-12-29T11:05:23;99884.53;;;12.36;66.60
31082;BME280;17737;52.586;13.284;2022-12-29T11:08:02;99887.22;;;12.36;67.05
31082;BME280;17737;52.586;13.284;2022-12-29T11:10:37;99885.56;;;12.35;66.96
31082;BME280;17737;52.586;13.284;2022-12-29T11:13:12;99887.06;;;12.44;66.90
31082;BME280;17737;52.586;13.284;2022-12-29T11:15:43;99888.31;;;12.42;66.83
31082;BME280;17737;52.586;13.284;2022-12-29T11:18:21;99883.50;;;12.37;67.05
31082;BME280;17737;52.586;13.284;2022-12-29T11:20:53;99886.00;;;12.39;66.69
31082;BME280;17737;52.586;13.284;2022-12-29T11:23:29;99898.66;;;12.38;66.75
31082;BME280;17737;52.586;13.284;2022-12-29T11:26:15;99901.78;;;12.35;67.32
31082;BME280;17737;52.586;13.284;2022-12-29T11:28:48;99909.25;;;12.33;67.18
31082;BME280;17737;52.586;13.284;2022-12-29T11:31:40;99905.47;;;12.28;67.47
31082;BME280;17737;52.586;13.284;2022-12-29T11:34:17;99891.66;;;12.10;68.14
31082;BME280;17737;52.586;13.284;2022-12-29T11:36:49;99892.03;;;12.00;68.86
31082;BME280;17737;52.586;13.284;2022-12-29T11:39:29;99905.47;;;11.93;70.00
31082;BME280;17737;52.586;13.284;2022-12-29T11:42:01;99906.06;;;11.89;70.07
31082;BME280;17737;52.586;13.284;2022-12-29T11:44:35;99902.72;;;11.87;69.65
31082;BME280;17737;52.586;13.284;2022-12-29T11:47:22;99895.81;;;11.78;71.65
31082;BME280;17737;52.586;13.284;2022-12-29T11:49:57;99896.22;;;11.54;73.13
31082;BME280;17737;52.586;13.284;2022-12-29T11:52:32;99899.75;;;11.33;74.17
31082;BME280;17737;52.586;13.284;2022-12-29T11:55:05;99901.34;;;11.07;75.96
31082;BME280;17737;52.586;13.284;2022-12-29T11:57:46;99893.97;;;10.94;77.45
31082;BME280;17737;52.586;13.284;2022-12-29T12:00:16;99894.94;;;10.86;77.37
31082;BME280;17737;52.586;13.284;2022-12-29T12:02:53;99903.31;;;10.77;77.43
31082;BME280;17737;52.586;13.284;2022-12-29T12:05:28;99914.84;;;10.71;77.43
31082;BME280;17737;52.586;13.284;2022-12-29T12:08:15;99910.69;;;10.68;76.90
31082;BME280;17737;52.586;13.284;2022-12-29T12:10:52;99918.88;;;10.60;77.67
31082;BME280;17737;52.586;13.284;2022-12-29T12:13:30;99915.63;;;10.65;77.34
31082;BME280;17737;52.586;13.284;2022-12-29T12:16:06;99922.97;;;10.56;77.76
31082;BME280;17737;52.586;13.284;2022-12-29T12:18:44;99936.16;;;10.51;79.01
31082;BME280;17737;52.586;13.284;2022-12-29T12:21:25;99937.28;;;10.42;79.32
31082;BME280;17737;52.586;13.284;2022-12-29T12:24:11;99940.72;;;10.36;79.80
31082;BME280;17737;52.586;13.284;2022-12-29T12:26:55;99910.56;;;10.26;80.55
31082;BME280;17737;52.586;13.284;2022-12-29T12:29:35;99907.13;;;10.18;81.05
31082;BME280;17737;52.586;13.284;2022-12-29T12:32:14;99903.41;;;10.19;80.75
31082;BME280;17737;52.586;13.284;2022-12-29T12:34:45;99910.38;;;10.13;80.83
31082;BME280;17737;52.586;13.284;2022-12-29T12:37:25;99906.94;;;10.19;79.99
31082;BME280;17737;52.586;13.284;2022-12-29T12:40:25;99910.63;;;10.18;79.40
31082;BME280;17737;52.586;13.284;2022-12-29T12:43:19;99911.09;;;10.22;78.89
31082;BME280;17737;52.586;13.284;2022-12-29T12:46:19;99908.22;;;10.23;78.59
31082;BME280;17737;52.586;13.284;2022-12-29T12:49:30;99913.91;;;10.28;77.91
31082;BME280;17737;52.586;13.284;2022-12-29T12:52:14;99923.66;;;10.29;77.91
31082;BME280;17737;52.586;13.284;2022-12-29T12:55:05;99921.13;;;10.28;77.50
31082;BME280;17737;52.586;13.284;2022-12-29T12:57:59;99922.59;;;10.30;76.75
31082;BME280;17737;52.586;13.284;2022-12-29T13:00:42;99931.91;;;10.28;76.92
31082;BME280;17737;52.586;13.284;2022-12-29T13:03:22;99926.72;;;10.26;76.56
31082;BME280;17737;52.586;13.284;2022-12-29T13:06:14;99938.69;;;10.24;76.65
31082;BME280;17737;52.586;13.284;2022-12-29T13:09:02;99930.69;;;10.30;75.96
31082;BME280;17737;52.586;13.284;2022-12-29T13:11:58;99918.53;;;10.34;75.68
31082;BME280;17737;52.586;13.284;2022-12-29T13:14:43;99928.47;;;10.34;75.22
31082;BME280;17737;52.586;13.284;2022-12-29T13:17:30;99934.03;;;10.32;75.60
31082;BME280;17737;52.586;13.284;2022-12-29T13:20:19;99927.38;;;10.28;76.20
31082;BME280;17737;52.586;13.284;2022-12-29T13:22:57;99934.03;;;10.32;76.43
31082;BME280;17737;52.586;13.284;2022-12-29T13:25:38;99942.50;;;10.29;76.55
31082;BME280;17737;52.586;13.284;2022-12-29T13:28:18;99944.16;;;10.30;76.42
31082;BME280;17737;52.586;13.284;2022-12-29T13:30:59;99940.84;;;10.28;77.33
31082;BME280;17737;52.586;13.284;2022-12-29T13:33:41;99940.16;;;10.41;77.12